createdAt,value
2022-11-26T00:01:31.208Z,9.77
2022-11-26T00:04:03.949Z,4.87
2022-11-26T00:06:37.361Z,7.07
2022-11-26T00:09:08.607Z,6.17
2022-11-26T00:11:38.338Z,12.67
2022-11-26T00:14:15.336Z,8.97
2022-11-26T00:16:45.311Z,8.67
2022-11-26T00:19:17.712Z,9.47
2022-11-26T00:21:47.483Z,7.33
2022-11-26T00:24:29.761Z,7.97
2022-11-26T00:27:01.806Z,7.70
2022-11-26T00:29:31.595Z,9.00
2022-11-26T00:32:01.419Z,9.93
2022-11-26T00:34:33.805Z,7.43
2022-11-26T00:37:03.575Z,7.27
2022-11-26T00:39:33.339Z,8.30
2022-11-26T00:42:03.328Z,8.20
2022-11-26T00:44:35.423Z,9.63
2022-11-26T00:47:05.568Z,6.10
2022-11-26T00:49:37.880Z,5.87
2022-11-26T00:52:12.897Z,7.87
2022-11-26T00:54:42.598Z,4.93
2022-11-26T00:57:13.676Z,7.30
2022-11-26T00:59:43.351Z,6.73
2022-11-26T01:02:13.702Z,6.33
2022-11-26T01:04:46.051Z,8.13
2022-11-26T01:07:15.836Z,5.83
2022-11-26T01:09:47.388Z,6.57
2022-11-26T01:12:17.984Z,8.50
2022-11-26T01:14:47.707Z,6.97
2022-11-26T01:17:17.419Z,6.27
2022-11-26T01:19:49.766Z,6.40
2022-11-26T01:22:23.791Z,6.30
2022-11-26T01:24:53.605Z,5.50
2022-11-26T01:27:23.956Z,5.23
2022-11-26T01:29:53.644Z,5.90
2022-11-26T01:32:29.205Z,6.77
2022-11-26T01:35:01.851Z,11.07
2022-11-26T01:37:31.571Z,6.83
2022-11-26T01:40:01.388Z,5.90
2022-11-26T01:42:44.368Z,6.77
2022-11-26T01:45:18.663Z,6.23
2022-11-26T01:47:49.299Z,8.63
2022-11-26T01:50:55.013Z,8.30
2022-11-26T01:53:32.717Z,7.27
2022-11-26T01:56:04.777Z,10.43
2022-11-26T01:58:40.233Z,7.37
2022-11-26T02:01:10.578Z,5.43
2022-11-26T02:03:46.749Z,6.87
2022-11-26T02:06:23.934Z,6.27
2022-11-26T02:08:53.962Z,6.03
2022-11-26T02:11:27.992Z,7.07
2022-11-26T02:14:03.151Z,5.73
2022-11-26T02:16:57.024Z,7.07
2022-11-26T02:20:03.143Z,7.43
2022-11-26T02:23:05.142Z,7.57
2022-11-26T02:26:05.931Z,5.83
2022-11-26T02:28:55.234Z,5.53
2022-11-26T02:31:35.603Z,6.30
2022-11-26T02:34:14.968Z,6.67
2022-11-26T02:36:52.535Z,4.97
2022-11-26T02:39:24.417Z,8.87
2022-11-26T02:41:57.048Z,8.33
2022-11-26T02:44:29.742Z,8.20
2022-11-26T02:47:06.804Z,10.47
2022-11-26T02:49:38.461Z,7.93
2022-11-26T02:52:10.145Z,7.97
2022-11-26T02:54:41.829Z,6.90
2022-11-26T02:57:15.756Z,8.67
2022-11-26T02:59:45.801Z,10.40
2022-11-26T03:02:26.667Z,5.27
2022-11-26T03:05:01.236Z,5.17
2022-11-26T03:07:33.118Z,7.93
2022-11-26T03:10:04.730Z,7.83
2022-11-26T03:12:34.569Z,7.60
2022-11-26T03:15:04.499Z,9.57
2022-11-26T03:17:37.127Z,6.27
2022-11-26T03:20:08.099Z,7.70
2022-11-26T03:22:37.930Z,6.73
2022-11-26T03:25:09.012Z,8.30
2022-11-26T03:27:38.859Z,7.93
2022-11-26T03:30:10.635Z,9.33
2022-11-26T03:32:43.097Z,8.40
2022-11-26T03:35:12.920Z,11.83
2022-11-26T03:37:42.728Z,8.50
2022-11-26T03:40:13.451Z,9.27
2022-11-26T03:42:43.177Z,11.00
2022-11-26T03:45:14.839Z,11.53
2022-11-26T03:47:47.861Z,9.27
2022-11-26T03:50:17.603Z,9.50
2022-11-26T03:52:47.313Z,7.47
2022-11-26T03:55:17.060Z,9.67
2022-11-26T03:57:46.815Z,6.93
2022-11-26T04:00:17.799Z,8.17
2022-11-26T04:02:50.316Z,9.50
2022-11-26T04:05:20.233Z,10.60
2022-11-26T04:07:50.144Z,7.77
2022-11-26T04:10:20.208Z,9.57
2022-11-26T04:12:49.947Z,7.73
2022-11-26T04:15:19.864Z,9.87
2022-11-26T04:17:52.202Z,10.87
2022-11-26T04:20:22.097Z,7.47
2022-11-26T04:22:51.829Z,11.47
2022-11-26T04:25:21.736Z,8.47
2022-11-26T04:27:51.509Z,7.70
2022-11-26T04:30:21.379Z,8.37
2022-11-26T04:32:53.769Z,8.57
2022-11-26T04:35:23.521Z,8.57
2022-11-26T04:37:53.310Z,5.63
2022-11-26T04:40:23.247Z,8.57
2022-11-26T04:42:53.054Z,8.93
2022-11-26T04:45:22.836Z,7.70
2022-11-26T04:50:42.449Z,8.70
2022-11-26T04:53:12.564Z,7.43
2022-11-26T04:55:42.297Z,8.17
2022-11-26T04:58:12.056Z,8.83
2022-11-26T05:00:41.848Z,7.23
2022-11-26T05:03:11.641Z,7.80
2022-11-26T05:05:44.409Z,7.20
2022-11-26T05:08:14.264Z,10.30
2022-11-26T05:10:44.271Z,8.67
2022-11-26T05:13:14.136Z,6.97
2022-11-26T05:15:43.881Z,6.43
2022-11-26T05:18:13.584Z,8.30
2022-11-26T05:20:45.973Z,8.77
2022-11-26T05:23:15.825Z,9.27
2022-11-26T05:25:45.640Z,9.97
2022-11-26T05:28:15.450Z,8.07
2022-11-26T05:30:45.506Z,9.97
2022-11-26T05:33:15.263Z,8.80
2022-11-26T05:35:47.639Z,11.60
2022-11-26T05:38:17.432Z,7.07
2022-11-26T05:40:47.406Z,8.07
2022-11-26T05:43:17.240Z,9.00
2022-11-26T05:45:47.040Z,9.10
2022-11-26T05:48:16.865Z,10.50
2022-11-26T05:50:54.369Z,8.53
2022-11-26T05:53:24.325Z,10.37
2022-11-26T05:55:54.222Z,9.03
2022-11-26T05:58:23.948Z,6.73
2022-11-26T06:00:53.791Z,9.17
2022-11-26T06:03:23.603Z,10.30
2022-11-26T06:05:56.123Z,9.13
2022-11-26T06:08:25.852Z,8.87
2022-11-26T06:10:55.563Z,12.90
2022-11-26T06:13:25.368Z,9.80
2022-11-26T06:15:55.096Z,8.67
2022-11-26T06:18:24.823Z,9.20
2022-11-26T06:20:57.124Z,7.73
2022-11-26T06:23:26.841Z,9.73
2022-11-26T06:25:57.589Z,9.63
2022-11-26T06:28:27.695Z,8.07
2022-11-26T06:30:57.512Z,11.30
2022-11-26T06:33:27.302Z,11.53
2022-11-26T06:36:01.851Z,8.87
2022-11-26T06:38:31.648Z,8.00
2022-11-26T06:41:02.709Z,8.23
2022-11-26T06:43:33.191Z,7.47
2022-11-26T06:46:05.805Z,7.77
2022-11-26T06:48:37.536Z,9.37
2022-11-26T06:51:11.729Z,10.27
2022-11-26T06:53:41.688Z,8.57
2022-11-26T06:56:18.474Z,8.07
2022-11-26T06:58:49.698Z,7.43
2022-11-26T07:01:21.493Z,8.37
2022-11-26T07:03:51.409Z,9.03
2022-11-26T07:06:25.910Z,11.70
2022-11-26T07:08:58.039Z,9.10
2022-11-26T07:11:28.526Z,14.07
2022-11-26T07:13:58.251Z,14.40
2022-11-26T07:16:28.412Z,16.87
2022-11-26T07:19:02.918Z,13.10
2022-11-26T07:21:35.731Z,14.27
2022-11-26T07:24:05.457Z,10.10
2022-11-26T07:26:35.340Z,10.30
2022-11-26T07:29:05.166Z,9.47
2022-11-26T07:31:36.287Z,11.77
2022-11-26T07:34:06.103Z,8.17
2022-11-26T07:36:43.059Z,10.23
2022-11-26T07:39:14.283Z,7.53
2022-11-26T07:41:45.163Z,7.57
2022-11-26T07:44:16.264Z,7.37
2022-11-26T07:46:45.995Z,7.60
2022-11-26T07:49:16.259Z,9.53
2022-11-26T07:51:48.627Z,10.00
2022-11-26T07:54:18.328Z,8.23
2022-11-26T07:56:48.023Z,10.57
2022-11-26T07:59:17.747Z,8.53
2022-11-26T08:01:48.383Z,9.73
2022-11-26T08:04:18.127Z,9.07
2022-11-26T08:06:50.535Z,10.47
2022-11-26T08:09:20.385Z,7.53
2022-11-26T08:11:50.106Z,9.23
2022-11-26T08:14:19.839Z,10.53
2022-11-26T08:16:49.570Z,9.50
2022-11-26T08:19:19.512Z,8.40
2022-11-26T08:21:51.847Z,14.17
2022-11-26T08:24:23.935Z,13.17
2022-11-26T08:26:53.657Z,8.53
2022-11-26T08:29:23.385Z,9.53
2022-11-26T08:31:53.179Z,11.37
2022-11-26T08:34:22.939Z,11.17
2022-11-26T08:36:58.190Z,11.70
2022-11-26T08:39:27.985Z,9.03
2022-11-26T08:41:58.909Z,9.67
2022-11-26T08:44:28.736Z,8.10
2022-11-26T08:46:58.440Z,8.97
2022-11-26T08:49:28.340Z,13.70
2022-11-26T08:52:00.975Z,8.50
2022-11-26T08:54:30.971Z,10.60
2022-11-26T08:57:00.698Z,8.57
2022-11-26T08:59:30.397Z,9.27
2022-11-26T09:02:00.334Z,10.20
2022-11-26T09:04:30.159Z,11.00
2022-11-26T09:07:02.594Z,10.10
2022-11-26T09:09:32.682Z,12.20
2022-11-26T09:12:06.641Z,12.20
2022-11-26T09:14:40.076Z,10.50
2022-11-26T09:17:10.679Z,9.67
2022-11-26T09:19:40.419Z,10.33
2022-11-26T09:22:12.788Z,12.57
2022-11-26T09:24:42.507Z,10.73
2022-11-26T09:27:13.497Z,12.63
2022-11-26T09:29:43.287Z,9.37
2022-11-26T09:32:24.460Z,11.13
2022-11-26T09:34:56.769Z,15.03
2022-11-26T09:37:29.069Z,10.00
2022-11-26T09:39:58.818Z,13.13
2022-11-26T09:42:41.184Z,10.57
2022-11-26T09:45:21.182Z,15.10
2022-11-26T09:47:55.655Z,9.47
2022-11-26T09:50:31.874Z,13.73
2022-11-26T09:53:08.143Z,10.53
2022-11-26T09:55:40.594Z,11.70
2022-11-26T09:58:15.135Z,13.73
2022-11-26T10:00:47.047Z,10.83
2022-11-26T10:03:19.146Z,13.27
2022-11-26T10:06:00.471Z,18.63
2022-11-26T10:08:49.547Z,15.33
2022-11-26T10:11:26.941Z,13.63
2022-11-26T10:14:06.071Z,13.20
2022-11-26T10:16:46.686Z,15.40
2022-11-26T10:19:26.122Z,11.50
2022-11-26T10:21:59.792Z,11.70
2022-11-26T10:24:36.979Z,14.07
2022-11-26T10:27:13.755Z,13.50
2022-11-26T10:29:46.272Z,14.07
2022-11-26T10:32:18.881Z,16.97
2022-11-26T10:34:53.256Z,11.47
2022-11-26T10:37:24.699Z,14.17
2022-11-26T10:40:04.503Z,14.33
2022-11-26T10:42:44.248Z,13.40
2022-11-26T10:45:22.433Z,10.63
2022-11-26T10:47:52.532Z,13.53
2022-11-26T10:50:46.833Z,12.00
2022-11-26T10:53:24.252Z,11.97
2022-11-26T10:55:58.319Z,10.93
2022-11-26T10:58:29.844Z,11.87
2022-11-26T11:01:06.045Z,13.07
2022-11-26T11:06:40.152Z,13.37
2022-11-26T11:09:33.083Z,15.97
2022-11-26T11:12:29.292Z,14.20
2022-11-26T11:14:59.434Z,12.33
2022-11-26T11:17:35.221Z,16.40
2022-11-26T11:20:26.279Z,15.97
2022-11-26T11:23:03.338Z,12.13
2022-11-26T11:25:36.013Z,17.23
2022-11-26T11:28:16.942Z,14.40
2022-11-26T11:30:47.477Z,13.27
2022-11-26T11:33:24.894Z,10.17
2022-11-26T11:36:03.286Z,13.57
2022-11-26T11:38:35.363Z,13.47
2022-11-26T11:41:07.864Z,13.83
2022-11-26T11:43:40.923Z,12.83
2022-11-26T11:46:28.178Z,15.33
2022-11-26T11:49:09.492Z,11.60
2022-11-26T11:51:49.205Z,14.73
2022-11-26T11:54:23.831Z,15.97
2022-11-26T11:57:03.841Z,14.27
2022-11-26T12:00:10.906Z,12.23
2022-11-26T12:03:14.511Z,13.27
2022-11-26T12:06:12.638Z,13.40
2022-11-26T12:08:53.533Z,16.40
2022-11-26T12:11:36.155Z,18.33
2022-11-26T12:14:13.991Z,12.63
2022-11-26T12:16:51.022Z,11.50
2022-11-26T12:19:28.402Z,12.13
2022-11-26T12:22:07.059Z,15.33
2022-11-26T12:24:44.740Z,20.03
2022-11-26T12:27:26.887Z,15.00
2022-11-26T12:30:01.837Z,12.20
2022-11-26T12:32:40.414Z,14.43
2022-11-26T12:35:18.568Z,13.00
2022-11-26T12:37:53.294Z,15.40
2022-11-26T12:40:33.421Z,11.87
2022-11-26T12:43:09.783Z,13.27
2022-11-26T12:45:51.003Z,15.00
2022-11-26T12:48:46.405Z,14.47
2022-11-26T12:51:36.320Z,15.07
2022-11-26T12:54:18.194Z,13.30
2022-11-26T12:56:59.984Z,16.67
2022-11-26T12:59:36.007Z,16.07
2022-11-26T13:02:22.498Z,13.27
2022-11-26T13:04:56.844Z,12.33
2022-11-26T13:07:45.451Z,15.30
2022-11-26T13:10:28.940Z,12.73
2022-11-26T13:13:08.173Z,11.17
2022-11-26T13:15:42.950Z,14.03
2022-11-26T13:18:19.929Z,13.23
2022-11-26T13:21:07.965Z,13.07
2022-11-26T13:24:00.914Z,15.83
2022-11-26T13:26:47.888Z,14.00
2022-11-26T13:29:38.502Z,13.50
2022-11-26T13:32:29.103Z,16.03
2022-11-26T13:35:16.501Z,17.57
2022-11-26T13:38:17.044Z,13.83
2022-11-26T13:41:21.898Z,12.33
2022-11-26T13:44:15.815Z,15.53
2022-11-26T13:46:49.596Z,15.00
2022-11-26T13:49:24.037Z,13.30
2022-11-26T13:51:58.316Z,13.57
2022-11-26T13:54:37.896Z,15.80
2022-11-26T13:57:12.211Z,16.67
2022-11-26T13:59:50.047Z,10.83
2022-11-26T14:02:42.755Z,13.17
2022-11-26T14:05:15.508Z,15.13
2022-11-26T14:07:46.420Z,14.53
2022-11-26T14:10:46.310Z,15.47
2022-11-26T14:13:18.101Z,11.57
2022-11-26T14:16:03.139Z,14.60
2022-11-26T14:19:05.291Z,15.27
2022-11-26T14:21:35.034Z,21.10
2022-11-26T14:24:04.765Z,11.43
2022-11-26T14:26:39.390Z,15.17
2022-11-26T14:29:17.635Z,13.13
2022-11-26T14:31:53.909Z,12.60
2022-11-26T14:34:31.895Z,12.63
2022-11-26T14:37:03.099Z,14.33
2022-11-26T14:39:33.476Z,14.20
2022-11-26T14:42:06.701Z,15.13
2022-11-26T14:44:36.972Z,14.77
2022-11-26T14:47:14.032Z,13.47
2022-11-26T14:49:47.167Z,15.03
2022-11-26T14:52:21.297Z,19.07
2022-11-26T14:54:54.470Z,15.13
2022-11-26T14:57:31.875Z,14.37
2022-11-26T15:00:03.073Z,13.97
2022-11-26T15:02:34.220Z,17.13
2022-11-26T15:05:05.312Z,13.23
2022-11-26T15:07:35.142Z,15.33
2022-11-26T15:10:07.582Z,12.23
2022-11-26T15:12:40.176Z,11.87
2022-11-26T15:15:16.223Z,13.77
2022-11-26T15:17:48.445Z,13.70
2022-11-26T15:20:20.759Z,13.60
2022-11-26T15:22:53.107Z,11.93
2022-11-26T15:25:24.938Z,13.00
2022-11-26T15:28:01.847Z,15.90
2022-11-26T15:30:32.974Z,14.73
2022-11-26T15:33:04.571Z,11.97
2022-11-26T15:35:36.390Z,13.53
2022-11-26T15:38:10.458Z,12.97
2022-11-26T15:40:48.449Z,15.83
2022-11-26T15:43:27.665Z,11.53
2022-11-26T15:46:01.269Z,14.17
2022-11-26T15:48:51.466Z,13.30
2022-11-26T15:51:33.743Z,12.83
2022-11-26T15:54:06.516Z,11.77
2022-11-26T15:56:39.840Z,13.97
2022-11-26T15:59:18.197Z,12.50
2022-11-26T16:01:49.994Z,10.87
2022-11-26T16:04:42.901Z,12.90
2022-11-26T16:07:15.106Z,15.00
2022-11-26T16:09:45.411Z,12.60
2022-11-26T16:12:33.034Z,15.53
2022-11-26T16:15:22.458Z,24.53
2022-11-26T16:17:53.341Z,24.60
2022-11-26T16:20:25.362Z,20.80
2022-11-26T16:22:57.203Z,15.00
2022-11-26T16:25:29.355Z,16.67
2022-11-26T16:28:10.161Z,12.93
2022-11-26T16:30:44.520Z,13.90
2022-11-26T16:33:14.322Z,13.57
2022-11-26T16:35:45.671Z,14.47
2022-11-26T16:38:22.188Z,12.93
2022-11-26T16:40:52.357Z,12.47
2022-11-26T16:43:22.734Z,15.93
2022-11-26T16:45:57.990Z,13.67
2022-11-26T16:48:29.903Z,18.57
2022-11-26T16:50:59.696Z,18.57
2022-11-26T16:53:29.409Z,13.70
2022-11-26T16:56:00.520Z,15.27
2022-11-26T16:58:32.283Z,13.33
2022-11-26T17:01:05.019Z,11.20
2022-11-26T17:03:35.567Z,12.07
2022-11-26T17:06:12.867Z,15.17
2022-11-26T17:08:49.255Z,14.80
2022-11-26T17:11:20.485Z,15.07
2022-11-26T17:13:50.372Z,18.87
2022-11-26T17:16:26.112Z,17.07
2022-11-26T17:18:56.052Z,16.37
2022-11-26T17:21:25.793Z,14.17
2022-11-26T17:23:55.533Z,13.50
2022-11-26T17:26:26.842Z,13.17
2022-11-26T17:28:56.576Z,14.60
2022-11-26T17:31:29.979Z,13.67
2022-11-26T17:33:59.879Z,15.07
2022-11-26T17:36:33.838Z,16.63
2022-11-26T17:39:06.628Z,13.83
2022-11-26T17:41:36.348Z,14.63
2022-11-26T17:44:06.233Z,19.17
2022-11-26T17:46:54.474Z,17.07
2022-11-26T17:49:28.507Z,15.73
2022-11-26T17:51:58.227Z,13.83
2022-11-26T17:54:27.929Z,17.27
2022-11-26T17:56:57.644Z,13.57
2022-11-26T17:59:28.757Z,12.97
2022-11-26T18:02:02.667Z,14.37
2022-11-26T18:04:32.796Z,15.83
2022-11-26T18:07:08.489Z,14.40
2022-11-26T18:09:38.845Z,13.13
2022-11-26T18:12:12.138Z,14.33
2022-11-26T18:14:44.088Z,15.03
2022-11-26T18:17:16.659Z,15.90
2022-11-26T18:19:46.693Z,18.03
2022-11-26T18:22:19.299Z,16.70
2022-11-26T18:24:56.845Z,17.27
2022-11-26T18:27:28.739Z,15.83
2022-11-26T18:29:59.654Z,15.03
2022-11-26T18:32:32.188Z,16.83
2022-11-26T18:35:01.913Z,15.07
2022-11-26T18:37:31.891Z,15.53
2022-11-26T18:40:01.808Z,15.50
2022-11-26T18:42:39.010Z,15.13
2022-11-26T18:45:11.967Z,19.27
2022-11-26T18:47:44.439Z,13.63
2022-11-26T18:50:14.599Z,14.80
2022-11-26T18:52:44.325Z,18.90
2022-11-26T18:55:17.737Z,16.63
2022-11-26T18:57:47.416Z,17.20
2022-11-26T19:00:18.128Z,16.20
2022-11-26T19:02:50.634Z,14.80
2022-11-26T19:05:20.672Z,14.93
2022-11-26T19:07:50.394Z,16.17
2022-11-26T19:10:20.217Z,15.23
2022-11-26T19:12:51.384Z,15.20
2022-11-26T19:15:21.080Z,19.80
2022-11-26T19:17:53.375Z,15.43
2022-11-26T19:20:23.095Z,18.10
2022-11-26T19:22:52.803Z,15.17
2022-11-26T19:25:22.515Z,14.07
2022-11-26T19:27:52.415Z,17.27
2022-11-26T19:30:23.150Z,19.13
2022-11-26T19:32:55.544Z,13.87
2022-11-26T19:35:26.256Z,13.07
2022-11-26T19:37:55.943Z,14.37
2022-11-26T19:40:25.640Z,14.43
2022-11-26T19:42:55.336Z,13.03
2022-11-26T19:45:26.344Z,16.30
2022-11-26T19:47:58.630Z,15.37
2022-11-26T19:50:29.035Z,17.47
2022-11-26T19:52:58.694Z,17.73
2022-11-26T19:55:28.409Z,18.33
2022-11-26T19:57:58.423Z,19.70
2022-11-26T20:00:28.144Z,15.30
2022-11-26T20:03:00.633Z,15.33
2022-11-26T20:05:30.367Z,17.13
2022-11-26T20:08:00.175Z,17.50
2022-11-26T20:10:29.944Z,18.33
2022-11-26T20:12:59.653Z,13.37
2022-11-26T20:15:29.385Z,16.47
2022-11-26T20:18:01.987Z,13.57
2022-11-26T20:20:31.687Z,17.57
2022-11-26T20:23:01.518Z,15.07
2022-11-26T20:25:34.748Z,14.43
2022-11-26T20:28:05.111Z,17.07
2022-11-26T20:30:35.268Z,13.60
2022-11-26T20:33:07.663Z,18.20
2022-11-26T20:35:37.420Z,22.17
2022-11-26T20:38:07.128Z,15.30
2022-11-26T20:40:36.832Z,13.30
2022-11-26T20:43:06.575Z,11.97
2022-11-26T20:45:36.483Z,13.60
2022-11-26T20:48:09.571Z,15.00
2022-11-26T20:50:40.644Z,16.00
2022-11-26T20:53:10.456Z,14.47
2022-11-26T20:55:40.175Z,15.77
2022-11-26T20:58:10.444Z,14.47
2022-11-26T21:00:44.164Z,16.77
2022-11-26T21:03:16.456Z,13.13
2022-11-26T21:05:46.188Z,15.13
2022-11-26T21:08:16.298Z,9.83
2022-11-26T21:10:46.416Z,12.07
2022-11-26T21:13:18.108Z,13.77
2022-11-26T21:15:50.169Z,13.90
2022-11-26T21:18:23.243Z,13.20
2022-11-26T21:20:54.075Z,10.97
2022-11-26T21:23:23.837Z,14.30
2022-11-26T21:25:53.570Z,9.40
2022-11-26T21:28:23.386Z,15.40
2022-11-26T21:30:53.213Z,13.60
2022-11-26T21:33:25.607Z,14.03
2022-11-26T21:35:55.294Z,10.07
2022-11-26T21:38:26.749Z,12.83
2022-11-26T21:40:56.684Z,11.60
2022-11-26T21:43:26.356Z,13.53
2022-11-26T21:45:56.081Z,12.17
2022-11-26T21:48:28.631Z,15.93
2022-11-26T21:50:58.368Z,13.13
2022-11-26T21:53:28.315Z,11.40
2022-11-26T21:55:58.009Z,16.07
2022-11-26T21:58:27.707Z,13.37
2022-11-26T22:00:59.064Z,11.43
2022-11-26T22:03:31.383Z,14.33
2022-11-26T22:06:02.049Z,11.37
2022-11-26T22:08:31.935Z,13.47
2022-11-26T22:11:01.632Z,10.03
2022-11-26T22:13:31.621Z,9.17
2022-11-26T22:16:01.384Z,13.73
2022-11-26T22:18:34.005Z,11.30
2022-11-26T22:21:03.713Z,9.63
2022-11-26T22:23:33.454Z,11.03
2022-11-26T22:26:03.220Z,9.47
2022-11-26T22:28:33.123Z,7.50
2022-11-26T22:31:02.893Z,11.23
2022-11-26T22:33:35.318Z,11.70
2022-11-26T22:36:05.060Z,11.63
2022-11-26T22:38:35.251Z,9.97
2022-11-26T22:41:06.038Z,7.17
2022-11-26T22:43:35.895Z,12.57
2022-11-26T22:46:07.221Z,9.53
2022-11-26T22:48:40.156Z,12.77
2022-11-26T22:51:10.317Z,11.27
2022-11-26T22:53:40.467Z,9.80
2022-11-26T22:56:10.992Z,10.57
2022-11-26T22:58:40.711Z,14.60
2022-11-26T23:01:11.592Z,11.93
2022-11-26T23:03:44.066Z,11.30
2022-11-26T23:06:16.672Z,13.20
2022-11-26T23:08:47.543Z,10.50
2022-11-26T23:11:19.420Z,14.97
2022-11-26T23:13:50.594Z,9.37
2022-11-26T23:16:21.702Z,13.40
2022-11-26T23:18:54.554Z,14.50
2022-11-26T23:21:27.625Z,13.10
2022-11-26T23:23:57.778Z,8.03
2022-11-26T23:26:31.124Z,11.57
2022-11-26T23:29:02.591Z,11.67
2022-11-26T23:31:34.500Z,10.77
2022-11-26T23:34:07.745Z,11.13
2022-11-26T23:36:38.187Z,11.07
2022-11-26T23:39:10.650Z,13.17
2022-11-26T23:41:40.422Z,13.33
2022-11-26T23:44:10.135Z,9.67
2022-11-26T23:46:39.989Z,12.00
2022-11-26T23:49:12.553Z,10.60
2022-11-26T23:51:42.382Z,12.00
2022-11-26T23:54:12.151Z,10.60
2022-11-26T23:56:44.653Z,9.13
2022-11-26T23:59:15.339Z,9.53
